Latest Coastal Weather Observations for Noarlunga

IDS60701

Issued at 1:41 pm CDT Tuesday 3 March 2015 (issued every 10 minutes, with the page automatically refreshed every 10 minutes)

About coastal observations | Map of coastal stations | Coastal observations for SA | Marine services | Other Formats
Station Details ID: 023885 Name: NOARLUNGA Lat: -35.16 Lon: 138.51 Height: 55.0 m
Data from the previous 72 hours. | See also: Recent months at Noarlunga
Date/Time
CDT
Temp

°C
Wind Pressure Rain
since 9am
mm
Weather Cloud Vis
km
Sea
Height
m
Swell
Dir
 
Speed
knots
Gust
knots
hPa Trend Height
m
Period
s
Dir
03/01:30pm 24.8 SSE 9 13 - - 0.0 - - - - - - -
03/01:00pm 24.1 SSE 9 14 - - 0.0 - - - - - - -
03/12:30pm 23.4 SSE 8 12 - - 0.0 - - - - - - -
03/12:00pm 22.9 SE 7 13 - - 0.0 - - - - - - -
03/11:30am 21.9 SE 8 13 - - 0.0 - - - - - - -
03/11:00am 21.5 SE 8 11 - - 0.0 - - - - - - -
03/10:30am 20.6 SE 8 12 - - 0.0 - - - - - - -
03/10:00am 19.3 ESE 9 13 - - 0.0 - - - - - - -
03/09:30am 19.0 SE 9 12 - - 0.0 - - - - - - -
03/09:00am 18.1 SE 11 16 - - 0.0 - - - - - - -
03/08:30am 17.1 ESE 9 13 - - 0.0 - - - - - - -
03/08:00am 16.2 ESE 8 13 - - 0.0 - - - - - - -
03/07:30am 15.6 ESE 6 11 - - 0.0 - - - - - - -
03/07:00am 15.3 ESE 9 12 - - 0.0 - - - - - - -
03/06:30am 15.4 ESE 8 13 - - 0.0 - - - - - - -
03/06:00am 15.6 ESE 9 14 - - 0.0 - - - - - - -
03/05:30am 15.6 ESE 11 16 - - 0.0 - - - - - - -
03/05:00am 15.8 ESE 9 15 - - 0.0 - - - - - - -
03/04:30am 15.9 ESE 9 13 - - 0.0 - - - - - - -
03/04:00am 16.3 ESE 10 16 - - 0.0 - - - - - - -
03/03:30am 16.4 SE 10 14 - - 0.0 - - - - - - -
03/03:00am 16.5 SE 10 13 - - 0.0 - - - - - - -
03/02:30am 16.8 SE 12 16 - - 0.0 - - - - - - -
03/02:00am 16.8 SE 10 14 - - 0.0 - - - - - - -
03/01:30am 17.0 SE 10 14 - - 0.0 - - - - - - -
03/01:00am 17.4 SE 11 15 - - 0.0 - - - - - - -
03/12:30am 17.6 SE 9 14 - - 0.0 - - - - - - -
03/12:00am 17.7 SE 8 11 - - 0.0 - - - - - - -
 
Date/Time
CDT
Temp

°C
Wind Pressure Rain
since 9am
mm
Weather Cloud Vis
km
Sea
Height
m
Swell
Dir
 
Speed
knots
Gust
knots
hPa Trend Height
m
Period
s
Dir
02/11:30pm 17.9 SSE 7 10 - - 0.0 - - - - - - -
02/11:00pm 18.3 SE 9 13 - - 0.0 - - - - - - -
02/10:30pm 18.5 ESE 6 9 - - 0.0 - - - - - - -
02/10:00pm 18.6 ESE 8 12 - - 0.0 - - - - - - -
02/09:30pm 19.1 SE 7 13 - - 0.0 - - - - - - -
02/09:00pm 20.5 CALM 0 2 - - 0.0 - - - - - - -
02/08:30pm 20.6 SW 4 7 - - 0.0 - - - - - - -
02/08:00pm 21.6 WSW 5 9 - - 0.0 - - - - - - -
02/07:30pm 22.4 SW 2 4 - - 0.0 - - - - - - -
02/07:00pm 22.7 S 2 5 - - 0.0 - - - - - - -
02/06:30pm 23.0 SSW 5 8 - - 0.0 - - - - - - -
02/06:00pm 23.1 WSW 4 6 - - 0.0 - - - - - - -
02/05:30pm 24.2 SW 5 9 - - 0.0 - - - - - - -
02/05:00pm 24.0 SSW 3 5 - - 0.0 - - - - - - -
02/04:30pm 22.4 WSW 3 5 - - 0.0 - - - - - - -
02/04:00pm 22.8 SSW 4 8 - - 0.0 - - - - - - -
02/03:30pm 22.9 SW 4 6 - - 0.0 - - - - - - -
02/03:00pm 23.9 WSW 4 7 - - 0.0 - - - - - - -
02/02:30pm 24.8 SW 5 7 - - 0.0 - - - - - - -
02/02:00pm 23.4 W 4 6 - - 0.0 - - - - - - -
02/01:30pm 22.9 W 6 7 - - 0.0 - - - - - - -
02/01:00pm 23.7 W 3 5 - - 0.0 - - - - - - -
02/12:30pm 23.1 WSW 5 6 - - 0.0 - - - - - - -
02/12:00pm 22.7 WNW 3 7 - - 0.0 - - - - - - -
02/11:30am 23.0 WNW 3 5 - - 0.0 - - - - - - -
02/11:00am 21.9 SW 1 2 - - 0.0 - - - - - - -
02/10:30am 21.6 SSE 2 3 - - 0.0 - - - - - - -
02/10:00am 20.5 S 2 4 - - 0.0 - - - - - - -
02/09:30am 20.3 ESE 3 4 - - 0.0 - - - - - - -
02/09:00am 18.9 ENE 3 4 - - 0.0 - - - - - - -
02/08:30am 18.4 E 5 7 - - 0.0 - - - - - - -
02/08:00am 17.4 NNE 4 8 - - 0.0 - - - - - - -
02/07:30am 16.8 ENE 9 14 - - 0.0 - - - - - - -
02/07:00am 16.2 ENE 10 15 - - 0.0 - - - - - - -
02/06:30am 16.3 ENE 10 15 - - 0.0 - - - - - - -
02/06:00am 16.1 E 9 16 - - 0.0 - - - - - - -
02/05:30am 15.6 E 12 19 - - 0.0 - - - - - - -
02/05:00am 15.5 E 13 17 - - 0.0 - - - - - - -
02/04:30am 15.2 ESE 12 20 - - 0.0 - - - - - - -
02/04:00am 14.8 ESE 13 21 - - 0.0 - - - - - - -
02/03:30am 14.8 ESE 12 19 - - 0.0 - - - - - - -
02/03:00am 15.0 ESE 13 19 - - 0.0 - - - - - - -
02/02:30am 15.0 ESE 13 20 - - 0.0 - - - - - - -
02/02:00am 15.0 ESE 15 20 - - 0.0 - - - - - - -
02/01:30am 15.1 ESE 15 22 - - 0.0 - - - - - - -
02/01:00am 15.3 ESE 16 23 - - 0.0 - - - - - - -
02/12:30am 15.4 ESE 16 22 - - 0.0 - - - - - - -
02/12:00am 15.6 ESE 17 27 - - 0.0 - - - - - - -
 
Date/Time
CDT
Temp

°C
Wind Pressure Rain
since 9am
mm
Weather Cloud Vis
km
Sea
Height
m
Swell
Dir
 
Speed
knots
Gust
knots
hPa Trend Height
m
Period
s
Dir
01/11:30pm 15.7 ESE 15 21 - - 0.0 - - - - - - -
01/11:00pm 15.7 SE 10 15 - - 0.0 - - - - - - -
01/10:30pm 15.8 SE 10 16 - - 0.0 - - - - - - -
01/10:00pm 15.8 SE 10 15 - - 0.0 - - - - - - -
01/09:30pm 15.7 SSE 8 11 - - 0.0 - - - - - - -
01/09:00pm 16.0 S 6 9 - - 0.0 - - - - - - -
01/08:30pm 16.4 SSE 10 14 - - 0.0 - - - - - - -
01/08:00pm 16.9 SSE 10 17 - - 0.0 - - - - - - -
01/07:30pm 17.7 SE 14 20 - - 0.0 - - - - - - -
01/07:00pm 19.0 SSE 12 18 - - 0.0 - - - - - - -
01/06:30pm 20.1 SSE 12 18 - - 0.0 - - - - - - -
01/06:00pm 20.4 SSE 12 19 - - 0.0 - - - - - - -
01/05:30pm 21.4 SSE 11 16 - - 0.0 - - - - - - -
01/05:00pm 21.8 SSE 10 17 - - 0.0 - - - - - - -
01/04:30pm 21.9 SSE 11 17 - - 0.0 - - - - - - -
01/04:00pm 22.0 SSE 11 19 - - 0.0 - - - - - - -
01/03:30pm 22.2 SE 10 16 - - 0.0 - - - - - - -
01/03:00pm 22.6 SSE 12 17 - - 0.0 - - - - - - -
01/02:30pm 22.7 S 11 17 - - 0.0 - - - - - - -
01/02:00pm 22.3 SSE 11 21 - - 0.0 - - - - - - -
01/01:30pm 22.3 SE 13 18 - - 0.0 - - - - - - -
01/01:00pm 21.2 SSE 12 18 - - 0.0 - - - - - - -
01/12:30pm 21.1 SSE 13 18 - - 0.0 - - - - - - -
01/12:00pm 21.5 SSE 12 19 - - 0.0 - - - - - - -
01/11:30am 20.7 S 12 18 - - 0.0 - - - - - - -
01/11:00am 20.9 SSE 13 18 - - 0.0 - - - - - - -
01/10:30am 19.8 SSW 8 13 - - 0.0 - - - - - - -
01/10:00am 19.8 S 9 13 - - 0.0 - - - - - - -
01/09:30am 18.5 SSW 8 13 - - 0.0 - - - - - - -
01/09:00am 17.8 S 9 12 - - 1.4 - - - - - - -
01/08:30am 17.1 S 4 7 - - 1.4 - - - - - - -
01/08:00am 15.7 SSE 2 3 - - 1.4 - - - - - - -
01/07:30am 14.9 SE 3 5 - - 1.4 - - - - - - -
01/07:00am 15.2 S 6 10 - - 1.4 - - - - - - -
01/06:30am 15.8 SSE 5 8 - - 1.4 - - - - - - -
01/06:00am 14.5 SSE 4 5 - - 1.4 - - - - - - -
01/05:30am 15.4 S 5 7 - - 1.4 - - - - - - -
01/05:00am 15.7 S 4 5 - - 1.4 - - - - - - -
01/04:30am 15.8 S 5 6 - - 1.4 - - - - - - -
01/04:00am 15.9 SSW 8 13 - - 1.4 - - - - - - -
01/03:30am 16.5 S 9 15 - - 1.4 - - - - - - -
01/03:00am 16.4 SSW 7 10 - - 1.4 - - - - - - -
01/02:30am 17.0 SSW 7 12 - - 1.4 - - - - - - -
01/02:00am 17.3 SSW 10 16 - - 1.4 - - - - - - -
01/01:30am 17.1 S 5 8 - - 1.4 - - - - - - -
01/01:00am 17.2 S 7 12 - - 1.4 - - - - - - -
01/12:30am 17.1 S 8 11 - - 1.4 - - - - - - -
01/12:00am 17.5 SSW 9 16 - - 1.4 - - - - - - -
 
Date/Time
CDT
Temp

°C
Wind Pressure Rain
since 9am
mm
Weather Cloud Vis
km
Sea
Height
m
Swell
Dir
 
Speed
knots
Gust
knots
hPa Trend Height
m
Period
s
Dir
28/11:30pm 17.0 S 4 6 - - 1.4 - - - - - - -
28/11:00pm 17.2 SSW 4 7 - - 1.4 - - - - - - -
28/10:30pm 17.6 S 8 11 - - 1.4 - - - - - - -
28/10:00pm 17.9 SSW 8 15 - - 1.4 - - - - - - -
28/09:30pm 18.0 SSW 8 12 - - 1.4 - - - - - - -
28/09:00pm 18.4 SSW 8 16 - - 1.4 - - - - - - -
28/08:30pm 19.1 S 9 14 - - 1.4 - - - - - - -
28/08:00pm 19.5 SSW 8 13 - - 1.4 - - - - - - -
28/07:30pm 20.0 SSW 8 16 - - 1.4 - - - - - - -
28/07:00pm 20.5 SSW 8 15 - - 1.4 - - - - - - -
28/06:30pm 20.2 SW 10 18 - - 1.2 - - - - - - -
28/06:00pm 21.7 SW 10 16 - - 1.0 - - - - - - -
28/05:30pm 23.9 SW 10 15 - - 1.0 - - - - - - -
28/05:00pm 23.2 SW 11 18 - - 1.0 - - - - - - -
28/04:30pm 24.3 SW 12 19 - - 1.0 - - - - - - -
28/04:00pm 26.0 SSW 13 19 - - 1.0 - - - - - - -
28/03:30pm 25.2 SSW 9 14 - - 1.0 - - - - - - -
28/03:00pm 23.6 SW 6 10 - - 1.0 Rain - - - - - -
28/02:30pm 25.9 WSW 8 13 - - 0.0 - - - - - - -
28/02:00pm 26.9 SW 6 10 - - 0.0 - - - - - - -

Other Formats:

Comma delimited format used in spreadsheet applications
http://www.bom.gov.au/fwo/IDS60701/IDS60701.94808.axf

JavaScript Object Notation format (JSON) in row-major order
http://www.bom.gov.au/fwo/IDS60701/IDS60701.94808.json